Time;durP1;ratioP1;P1;durP2;ratioP2;P2;SDS_P1;SDS_P2;PMS_P1;PMS_P2;Temp;Humidity;BMP_temperature;BMP_pressure;BME280_temperature;BME280_humidity;BME280_pressure;Samples;Min_cycle;Max_cycle;Signal;HPM_P1;HPM_P2
2023/10/04 00:00:20;;;;;;;6.15;3.45;;;12.70;99.90;;;;;;5069122;28;20466;-24
2023/10/04 00:02:52;;;;;;;6.72;2.85;;;12.70;99.90;;;;;;5069560;28;20043;-24
2023/10/04 00:05:23;;;;;;;5.07;3.33;;;12.70;99.90;;;;;;5073974;28;20037;-24
2023/10/04 00:07:51;;;;;;;8.43;2.90;;;12.70;99.90;;;;;;5067430;28;20125;-25
2023/10/04 00:10:18;;;;;;;8.57;3.75;;;12.70;99.90;;;;;;5068988;28;20095;-26
2023/10/04 00:12:45;;;;;;;8.13;3.60;;;12.60;99.90;;;;;;5070449;28;20129;-26
2023/10/04 00:15:13;;;;;;;6.05;3.33;;;12.60;99.90;;;;;;5065262;28;20033;-26
2023/10/04 00:17:48;;;;;;;8.30;3.40;;;12.60;99.90;;;;;;5076566;28;20040;-25
2023/10/04 00:20:17;;;;;;;5.80;2.95;;;12.50;99.90;;;;;;5068208;28;20041;-24
2023/10/04 00:22:46;;;;;;;8.07;3.17;;;12.50;99.90;;;;;;5068946;28;20045;-26
2023/10/04 00:25:21;;;;;;;8.07;3.15;;;12.50;99.90;;;;;;5077126;28;20392;-25
2023/10/04 00:27:48;;;;;;;8.82;3.58;;;12.40;99.90;;;;;;5070952;28;20064;-25
2023/10/04 00:30:15;;;;;;;7.88;3.20;;;12.40;99.90;;;;;;5076127;28;20044;-25
2023/10/04 00:32:41;;;;;;;7.85;3.38;;;12.30;99.90;;;;;;5071505;28;20036;-26
2023/10/04 00:35:15;;;;;;;7.95;3.15;;;12.30;99.90;;;;;;5070149;28;20121;-26
2023/10/04 00:37:45;;;;;;;6.07;3.25;;;12.40;99.90;;;;;;5069493;28;20048;-26
2023/10/04 00:40:15;;;;;;;6.95;3.28;;;12.40;99.90;;;;;;5069125;28;20124;-26
2023/10/04 00:42:41;;;;;;;7.10;2.78;;;12.40;99.90;;;;;;5067747;28;20033;-27
2023/10/04 00:45:13;;;;;;;9.38;3.00;;;12.40;99.90;;;;;;5068704;28;20090;-27
2023/10/04 00:47:47;;;;;;;7.65;2.90;;;12.30;99.90;;;;;;5072212;28;20032;-24
2023/10/04 00:50:20;;;;;;;7.07;2.75;;;12.20;99.90;;;;;;5069572;28;20495;-26
2023/10/04 00:52:51;;;;;;;5.78;2.45;;;12.20;99.90;;;;;;5075052;28;20139;-26
2023/10/04 00:55:19;;;;;;;9.75;3.17;;;12.20;99.90;;;;;;5070554;28;20094;-26
2023/10/04 00:57:52;;;;;;;6.15;2.55;;;12.10;99.90;;;;;;5075909;28;20040;-26
2023/10/04 01:00:19;;;;;;;6.40;2.80;;;12.10;99.90;;;;;;5069305;28;20488;-25
2023/10/04 01:02:45;;;;;;;8.75;2.80;;;12.10;99.90;;;;;;5070463;28;20045;-24
2023/10/04 01:05:12;;;;;;;8.80;2.90;;;12.00;99.90;;;;;;5048015;28;20036;-25
2023/10/04 01:07:39;;;;;;;8.38;2.78;;;12.00;99.90;;;;;;5067140;28;20041;-26
2023/10/04 01:10:15;;;;;;;11.65;3.30;;;11.90;99.90;;;;;;5045802;28;20126;-24
2023/10/04 01:12:46;;;;;;;4.97;2.47;;;12.00;99.90;;;;;;5071776;28;20487;-24
2023/10/04 01:17:58;;;;;;;5.80;2.10;;;11.90;99.90;;;;;;5068991;28;20426;-25
2023/10/04 01:20:38;;;;;;;7.32;2.60;;;11.90;99.90;;;;;;5032765;28;20059;-26
2023/10/04 01:23:06;;;;;;;7.32;2.58;;;11.90;99.90;;;;;;5070457;28;20514;-26
2023/10/04 01:25:36;;;;;;;5.07;2.08;;;11.90;99.90;;;;;;5067310;28;20040;-26
2023/10/04 01:28:12;;;;;;;7.47;2.35;;;11.90;99.90;;;;;;5067848;28;20112;-26
2023/10/04 01:30:42;;;;;;;7.00;2.50;;;11.80;99.90;;;;;;5042604;28;20041;-25
2023/10/04 01:33:11;;;;;;;6.22;1.98;;;11.80;99.90;;;;;;5064961;28;20036;-27
2023/10/04 01:35:38;;;;;;;7.18;2.55;;;11.80;99.90;;;;;;5074930;28;20036;-25
2023/10/04 01:38:07;;;;;;;6.30;2.40;;;11.80;99.90;;;;;;5070677;28;20040;-28
2023/10/04 01:40:35;;;;;;;6.13;2.28;;;11.80;99.90;;;;;;5062448;28;20057;-26
2023/10/04 01:43:14;;;;;;;6.30;2.53;;;11.80;99.90;;;;;;5066784;28;20044;-25
2023/10/04 01:45:43;;;;;;;6.78;2.47;;;11.80;99.90;;;;;;5062147;28;20048;-25
2023/10/04 01:48:09;;;;;;;7.25;2.30;;;11.80;99.90;;;;;;5067173;28;20044;-27
2023/10/04 01:50:34;;;;;;;4.70;2.17;;;11.80;99.90;;;;;;5067831;28;20112;-27
2023/10/04 01:53:01;;;;;;;11.13;3.10;;;11.80;99.90;;;;;;5065933;28;20350;-26
2023/10/04 01:55:26;;;;;;;4.45;2.22;;;11.80;99.90;;;;;;5070770;28;20081;-27
2023/10/04 01:57:52;;;;;;;7.65;2.50;;;11.80;99.90;;;;;;5066464;28;20120;-25
2023/10/04 02:00:22;;;;;;;6.40;1.95;;;11.80;99.90;;;;;;5080824;22;22663;-86
2023/10/04 02:02:48;;;;;;;9.05;2.17;;;11.70;99.90;;;;;;5029886;28;20152;-86
2023/10/04 02:05:26;;;;;;;7.63;2.17;;;11.80;99.90;;;;;;5049136;28;20119;-86
2023/10/04 02:07:53;;;;;;;5.97;2.40;;;11.80;99.90;;;;;;5025266;28;20122;-86
2023/10/04 02:10:19;;;;;;;6.65;2.92;;;11.80;99.90;;;;;;5060155;28;20048;-85
2023/10/04 02:12:45;;;;;;;5.63;2.65;;;11.80;99.90;;;;;;5060651;28;20049;-86
2023/10/04 02:15:15;;;;;;;6.20;2.15;;;11.80;99.90;;;;;;5062238;28;20043;-86
2023/10/04 02:17:44;;;;;;;5.55;2.40;;;11.70;99.90;;;;;;5040561;28;20036;-86
2023/10/04 02:20:19;;;;;;;6.80;2.55;;;11.70;99.90;;;;;;5045211;28;20028;-85
2023/10/04 02:22:45;;;;;;;5.95;2.40;;;11.70;99.90;;;;;;5041885;28;20503;-86
2023/10/04 02:25:13;;;;;;;4.93;2.45;;;11.70;99.90;;;;;;5061764;28;20043;-86
2023/10/04 02:27:40;;;;;;;6.13;2.92;;;11.70;99.90;;;;;;5042084;28;20040;-86
2023/10/04 02:30:13;;;;;;;7.25;2.90;;;11.60;99.90;;;;;;5033793;28;20070;-86
2023/10/04 02:32:49;;;;;;;8.63;2.63;;;11.60;99.90;;;;;;5058801;28;20051;-86
2023/10/04 02:35:28;;;;;;;5.03;3.20;;;11.60;99.90;;;;;;5058331;28;20617;-86
2023/10/04 02:37:59;;;;;;;9.07;3.20;;;11.50;99.90;;;;;;5036688;28;20119;-86
2023/10/04 02:40:32;;;;;;;9.98;3.22;;;11.60;99.90;;;;;;5055660;28;20032;-86
2023/10/04 02:42:58;;;;;;;8.63;3.40;;;11.60;99.90;;;;;;5037456;28;20111;-86
2023/10/04 02:45:24;;;;;;;8.75;2.80;;;11.60;99.90;;;;;;5062230;28;20499;-86
2023/10/04 02:47:52;;;;;;;7.15;2.95;;;11.60;99.90;;;;;;5056462;28;20116;-86
2023/10/04 02:50:19;;;;;;;7.20;3.00;;;11.60;99.90;;;;;;5055531;28;20040;-86
2023/10/04 02:52:50;;;;;;;8.20;3.10;;;11.60;99.90;;;;;;5035405;28;20115;-86
2023/10/04 02:55:19;;;;;;;10.38;3.35;;;11.60;99.90;;;;;;5060309;28;20033;-86
2023/10/04 02:57:49;;;;;;;7.03;3.20;;;11.60;99.90;;;;;;5039549;28;20041;-86
2023/10/04 03:00:19;;;;;;;7.38;3.17;;;11.60;99.90;;;;;;5035102;28;20070;-86
2023/10/04 03:02:50;;;;;;;9.48;3.63;;;11.60;99.90;;;;;;5052668;28;20051;-86
2023/10/04 03:05:20;;;;;;;9.20;3.00;;;11.60;99.90;;;;;;5040522;28;20557;-86
2023/10/04 03:07:52;;;;;;;6.60;3.55;;;11.60;99.90;;;;;;5055495;28;20036;-86
2023/10/04 03:10:24;;;;;;;8.68;3.08;;;11.60;99.90;;;;;;5043251;28;20083;-86
2023/10/04 03:12:56;;;;;;;10.50;3.40;;;11.50;99.90;;;;;;5056765;28;20036;-86
2023/10/04 03:15:23;;;;;;;7.65;3.17;;;11.50;99.90;;;;;;5036776;28;20039;-86
2023/10/04 03:17:53;;;;;;;10.18;3.25;;;11.50;99.90;;;;;;5056755;28;20044;-86
2023/10/04 03:20:23;;;;;;;7.47;3.03;;;11.50;99.90;;;;;;5040727;28;20694;-86
2023/10/04 03:22:51;;;;;;;8.02;3.60;;;11.50;99.90;;;;;;5057539;28;20071;-85
2023/10/04 03:25:21;;;;;;;8.18;3.10;;;11.40;99.90;;;;;;5060088;28;20028;-87
2023/10/04 03:27:47;;;;;;;9.80;3.05;;;11.40;99.90;;;;;;5040858;28;20036;-86
2023/10/04 03:30:14;;;;;;;8.63;3.40;;;11.40;99.90;;;;;;5036477;28;20075;-86
2023/10/04 03:32:49;;;;;;;10.05;3.35;;;11.30;99.90;;;;;;5056785;28;20038;-86
2023/10/04 03:35:15;;;;;;;6.22;3.10;;;11.30;99.90;;;;;;5053578;28;20410;-87
2023/10/04 03:37:49;;;;;;;5.13;2.70;;;11.30;99.90;;;;;;5059670;28;20150;-86
2023/10/04 03:40:17;;;;;;;10.35;2.97;;;11.30;99.90;;;;;;5056725;28;20048;-86
2023/10/04 03:42:45;;;;;;;11.27;3.33;;;11.30;99.90;;;;;;5054527;28;20426;-85
2023/10/04 03:45:11;;;;;;;10.98;2.97;;;11.30;99.90;;;;;;5060818;28;20046;-86
2023/10/04 03:47:37;;;;;;;9.95;3.22;;;11.30;99.90;;;;;;5039976;28;20032;-86
2023/10/04 03:50:06;;;;;;;8.50;2.80;;;11.20;99.90;;;;;;5040358;28;20036;-86
2023/10/04 03:52:32;;;;;;;8.98;3.25;;;11.20;99.90;;;;;;5056258;28;20434;-86
2023/10/04 03:54:57;;;;;;;8.18;3.00;;;11.30;99.90;;;;;;5038594;28;20115;-86
2023/10/04 03:57:24;;;;;;;5.35;2.72;;;11.20;99.90;;;;;;5039516;28;20040;-86
2023/10/04 03:59:51;;;;;;;6.50;2.65;;;11.30;99.90;;;;;;5042115;28;20044;-86
2023/10/04 04:02:16;;;;;;;6.97;3.05;;;11.20;99.90;;;;;;5056244;28;20036;-86
2023/10/04 04:04:42;;;;;;;13.00;3.38;;;11.20;99.90;;;;;;5040177;28;20043;-86
2023/10/04 04:07:08;;;;;;;7.35;2.97;;;11.20;99.90;;;;;;5062559;28;20045;-86
2023/10/04 04:09:34;;;;;;;8.73;3.03;;;11.20;99.90;;;;;;5053660;28;20044;-86
2023/10/04 04:12:00;;;;;;;8.48;3.03;;;11.20;99.90;;;;;;5040812;28;20037;-86
2023/10/04 04:14:26;;;;;;;9.02;2.88;;;11.20;99.90;;;;;;5039820;28;20540;-86
2023/10/04 04:16:52;;;;;;;9.38;3.03;;;11.20;99.90;;;;;;5037110;28;20036;-86
2023/10/04 04:19:22;;;;;;;6.50;2.55;;;11.20;99.90;;;;;;5055922;28;20439;-86
2023/10/04 04:21:49;;;;;;;5.85;2.97;;;11.30;99.90;;;;;;5050463;28;20067;-86
2023/10/04 04:24:15;;;;;;;8.85;3.45;;;11.20;99.90;;;;;;5041619;28;20102;-87
2023/10/04 04:26:41;;;;;;;9.65;3.15;;;11.20;99.90;;;;;;5046325;28;20486;-86
2023/10/04 04:29:09;;;;;;;7.78;2.90;;;11.30;99.90;;;;;;5052588;28;20376;-86
2023/10/04 04:31:36;;;;;;;8.52;2.85;;;11.20;99.90;;;;;;5036642;28;20055;-86
2023/10/04 04:34:03;;;;;;;8.60;3.10;;;11.30;99.90;;;;;;5041840;28;20402;-87
2023/10/04 04:36:34;;;;;;;6.20;2.80;;;11.40;99.90;;;;;;5042127;28;20045;-86
2023/10/04 04:39:04;;;;;;;11.82;2.75;;;11.40;99.90;;;;;;5040387;28;20052;-87
2023/10/04 04:41:30;;;;;;;7.32;2.83;;;11.40;99.90;;;;;;5039647;28;20052;-87
2023/10/04 04:43:55;;;;;;;9.38;3.17;;;11.40;99.90;;;;;;5060236;28;20113;-86
2023/10/04 04:46:23;;;;;;;8.25;2.60;;;11.50;99.90;;;;;;5042854;28;20123;-86
2023/10/04 04:48:54;;;;;;;7.90;2.88;;;11.50;99.90;;;;;;5035274;28;20125;-85
2023/10/04 04:51:20;;;;;;;8.00;3.30;;;11.50;99.90;;;;;;5033880;28;20062;-86
2023/10/04 04:53:46;;;;;;;6.93;2.67;;;11.50;99.90;;;;;;5053479;28;20074;-86
2023/10/04 04:56:17;;;;;;;8.32;3.25;;;11.60;99.90;;;;;;5053905;28;20670;-85
2023/10/04 04:58:49;;;;;;;7.68;2.85;;;11.60;99.90;;;;;;5042380;28;20485;-85
2023/10/04 05:01:15;;;;;;;6.88;2.95;;;11.70;99.90;;;;;;5036547;28;20102;-86
2023/10/04 05:03:44;;;;;;;8.73;2.83;;;11.60;99.90;;;;;;5039219;28;20649;-85
2023/10/04 05:06:13;;;;;;;6.38;2.92;;;11.70;99.90;;;;;;5039367;28;20131;-84
2023/10/04 05:08:40;;;;;;;7.97;2.72;;;11.60;99.90;;;;;;5035921;28;20036;-86
2023/10/04 05:11:07;;;;;;;6.85;3.00;;;11.60;99.90;;;;;;5038492;28;20055;-86
2023/10/04 05:13:33;;;;;;;11.48;3.38;;;11.60;99.90;;;;;;5056483;28;20079;-86
2023/10/04 05:16:00;;;;;;;8.98;3.17;;;11.70;99.90;;;;;;5055975;28;20497;-86
2023/10/04 05:18:26;;;;;;;8.85;3.45;;;11.60;99.90;;;;;;5050375;28;20110;-86
2023/10/04 05:20:54;;;;;;;8.88;3.55;;;11.60;99.90;;;;;;5037609;28;20410;-86
2023/10/04 05:23:24;;;;;;;6.53;2.90;;;11.60;99.90;;;;;;5034540;28;20413;-86
2023/10/04 05:25:51;;;;;;;9.50;3.20;;;11.50;99.90;;;;;;5030705;28;20043;-87
2023/10/04 05:28:17;;;;;;;8.20;3.03;;;11.50;99.90;;;;;;5031807;28;20047;-86
2023/10/04 05:30:45;;;;;;;8.75;2.90;;;11.50;99.90;;;;;;5025817;28;20033;-86
2023/10/04 05:33:15;;;;;;;9.88;2.90;;;11.40;99.90;;;;;;5037282;28;20054;-88
2023/10/04 05:35:43;;;;;;;10.27;3.47;;;11.40;99.90;;;;;;5059768;28;20063;-87
2023/10/04 05:38:11;;;;;;;10.40;3.22;;;11.40;99.90;;;;;;5067415;28;20530;-86
2023/10/04 05:40:38;;;;;;;6.55;3.60;;;11.30;99.90;;;;;;5046245;28;20100;-88
2023/10/04 05:46:49;;;;;;;9.50;3.70;;;11.30;99.90;;;;;;5064679;28;20154;-87
2023/10/04 05:49:21;;;;;;;8.93;3.30;;;11.30;99.90;;;;;;5047507;28;20055;-88
2023/10/04 05:51:47;;;;;;;11.35;3.45;;;11.20;99.90;;;;;;5042334;28;20048;-88
2023/10/04 05:54:20;;;;;;;8.48;3.47;;;11.20;99.90;;;;;;5031420;28;20836;-88
2023/10/04 05:56:46;;;;;;;9.35;3.75;;;11.30;99.90;;;;;;5031227;28;20070;-88
2023/10/04 05:59:13;;;;;;;8.23;3.40;;;11.20;99.90;;;;;;5045481;28;20048;-87
2023/10/04 06:01:39;;;;;;;8.20;3.30;;;11.30;99.90;;;;;;5045221;28;20048;-87
2023/10/04 06:04:05;;;;;;;11.02;3.55;;;11.20;99.90;;;;;;5050063;28;20045;-88
2023/10/04 06:06:44;;;;;;;9.82;3.40;;;11.30;99.90;;;;;;5036893;28;20086;-88
2023/10/04 06:09:10;;;;;;;8.23;3.00;;;11.40;99.90;;;;;;5032779;28;20036;-87
2023/10/04 06:11:44;;;;;;;7.82;3.38;;;11.40;99.90;;;;;;5039629;28;20090;-89
2023/10/04 06:14:16;;;;;;;6.70;3.63;;;11.40;99.90;;;;;;5053461;28;20093;-89
2023/10/04 06:16:42;;;;;;;9.93;3.42;;;11.50;99.90;;;;;;5040328;28;20052;-88
2023/10/04 06:19:08;;;;;;;13.30;3.58;;;11.60;99.90;;;;;;5045624;28;20567;-90
2023/10/04 06:21:34;;;;;;;13.85;4.00;;;11.60;99.90;;;;;;5029456;28;20045;-88
2023/10/04 06:23:59;;;;;;;7.43;3.50;;;11.70;99.90;;;;;;5028724;28;20060;-89
2023/10/04 06:26:25;;;;;;;13.23;3.88;;;11.80;99.90;;;;;;5036081;28;20047;-88
2023/10/04 06:28:50;;;;;;;12.20;3.95;;;11.80;99.90;;;;;;5050564;28;20028;-88
2023/10/04 06:31:19;;;;;;;14.10;3.80;;;11.80;99.90;;;;;;5038786;28;20036;-88
2023/10/04 06:33:53;;;;;;;9.75;3.13;;;11.90;99.90;;;;;;5036671;28;20044;-88
2023/10/04 06:36:25;;;;;;;8.82;3.53;;;12.00;99.90;;;;;;5038209;28;20122;-88
2023/10/04 06:38:51;;;;;;;9.55;3.25;;;12.00;99.90;;;;;;5052517;28;20125;-89
2023/10/04 06:41:24;;;;;;;9.80;3.60;;;12.10;99.90;;;;;;5036820;28;20040;-88
2023/10/04 06:43:53;;;;;;;11.70;3.78;;;12.10;99.90;;;;;;5032350;28;20442;-89
2023/10/04 06:46:19;;;;;;;7.15;3.35;;;12.20;99.90;;;;;;5050867;28;20044;-89
2023/10/04 06:48:51;;;;;;;9.38;3.22;;;12.30;99.90;;;;;;5040628;28;20047;-89
2023/10/04 06:51:19;;;;;;;10.68;3.63;;;12.30;99.90;;;;;;5040865;28;20476;-88
2023/10/04 06:53:54;;;;;;;8.07;3.42;;;12.40;99.90;;;;;;5052132;28;20039;-88
2023/10/04 06:56:24;;;;;;;8.93;3.15;;;12.40;99.90;;;;;;5037003;28;20041;-88
2023/10/04 06:58:55;;;;;;;13.33;3.97;;;12.50;99.90;;;;;;5043085;28;20048;-88
2023/10/04 07:01:26;;;;;;;11.15;3.50;;;12.60;99.90;;;;;;5040739;28;20123;-89
2023/10/04 07:03:52;;;;;;;7.80;3.20;;;12.60;99.90;;;;;;5040180;28;20043;-89
2023/10/04 07:06:25;;;;;;;10.57;3.65;;;12.70;99.90;;;;;;5039943;28;20040;-88
2023/10/04 07:08:59;;;;;;;9.95;3.95;;;12.70;99.90;;;;;;5040778;28;20045;-88
2023/10/04 07:11:31;;;;;;;9.13;2.95;;;12.70;99.90;;;;;;5039458;28;20044;-89
2023/10/04 07:13:56;;;;;;;11.75;3.10;;;12.80;99.90;;;;;;5040840;28;20063;-88
2023/10/04 07:16:22;;;;;;;12.38;3.42;;;12.80;99.90;;;;;;5046065;28;20391;-88
2023/10/04 07:18:52;;;;;;;9.85;3.78;;;12.90;99.90;;;;;;5044781;28;20410;-88
2023/10/04 07:21:23;;;;;;;12.20;3.67;;;12.90;99.90;;;;;;5039984;28;20051;-88
2023/10/04 07:23:57;;;;;;;7.80;3.63;;;12.90;99.90;;;;;;5039575;28;20045;-89
2023/10/04 07:26:28;;;;;;;6.97;3.33;;;12.90;99.90;;;;;;5041808;28;20052;-88
2023/10/04 07:29:00;;;;;;;9.02;3.10;;;12.90;99.90;;;;;;5043229;28;20413;-88
2023/10/04 07:31:36;;;;;;;10.68;3.17;;;12.90;99.90;;;;;;5076405;28;20468;-89
2023/10/04 07:34:13;;;;;;;10.02;3.88;;;13.00;99.90;;;;;;5060854;28;20044;-89
2023/10/04 07:36:38;;;;;;;8.80;3.40;;;13.10;99.90;;;;;;5052777;28;20040;-90
2023/10/04 07:39:04;;;;;;;7.90;3.28;;;13.10;99.90;;;;;;5059502;28;20040;-89
2023/10/04 07:41:30;;;;;;;10.20;3.22;;;13.20;99.90;;;;;;5039667;28;20060;-89
2023/10/04 07:43:56;;;;;;;6.85;3.50;;;13.30;99.90;;;;;;5059156;28;20054;-89
2023/10/04 07:46:25;;;;;;;9.18;3.55;;;13.50;99.90;;;;;;5035726;28;20036;-80
2023/10/04 07:48:50;;;;;;;9.32;3.40;;;13.70;99.90;;;;;;5051202;28;20052;-81
2023/10/04 07:51:16;;;;;;;11.13;3.10;;;13.90;99.90;;;;;;5045352;28;20051;-84
2023/10/04 07:53:52;;;;;;;10.85;4.05;;;14.00;99.90;;;;;;5040076;28;20524;-89
2023/10/04 07:56:19;;;;;;;8.20;3.70;;;14.20;99.90;;;;;;5034751;28;20609;-87
2023/10/04 07:58:46;;;;;;;10.80;3.55;;;14.40;99.90;;;;;;5046614;28;20121;-90
2023/10/04 08:01:20;;;;;;;14.07;4.10;;;14.60;99.90;;;;;;5051684;28;20040;-89
2023/10/04 08:03:47;;;;;;;5.70;2.90;;;14.90;99.90;;;;;;5055821;28;20551;-86
2023/10/04 08:06:13;;;;;;;6.68;3.30;;;15.50;99.90;;;;;;5054525;28;20043;-89
2023/10/04 08:08:45;;;;;;;9.32;3.40;;;15.80;99.90;;;;;;5040572;28;20051;-89
2023/10/04 08:11:11;;;;;;;9.82;3.15;;;16.00;99.90;;;;;;5040054;28;20128;-87
2023/10/04 08:13:38;;;;;;;8.20;3.95;;;16.30;99.90;;;;;;5057564;28;20044;-89
2023/10/04 08:16:04;;;;;;;7.43;3.22;;;16.40;99.90;;;;;;5052661;28;20562;-89
2023/10/04 08:18:30;;;;;;;9.55;3.00;;;16.70;99.90;;;;;;5058447;28;20048;-88
2023/10/04 08:21:08;;;;;;;9.52;3.60;;;16.90;99.90;;;;;;5052854;28;20040;-87
2023/10/04 08:23:33;;;;;;;6.57;3.30;;;16.90;99.90;;;;;;5034904;28;20179;-88
2023/10/04 08:25:59;;;;;;;11.73;3.58;;;17.10;99.90;;;;;;5039221;28;20131;-88
2023/10/04 08:28:26;;;;;;;8.77;3.53;;;17.40;99.90;;;;;;5057621;28;20772;-88
2023/10/04 08:30:52;;;;;;;8.73;3.60;;;17.60;99.90;;;;;;5034976;28;20052;-89
2023/10/04 08:33:31;;;;;;;8.27;3.28;;;17.80;99.90;;;;;;5038737;28;20047;-89
2023/10/04 08:36:08;;;;;;;8.13;3.30;;;18.00;99.90;;;;;;5047956;28;20119;-89
2023/10/04 08:38:37;;;;;;;9.65;3.10;;;18.30;99.90;;;;;;5042213;28;20067;-89
2023/10/04 08:41:05;;;;;;;9.23;3.50;;;18.40;99.90;;;;;;5049047;28;20115;-89
2023/10/04 08:43:37;;;;;;;10.82;3.58;;;18.40;99.90;;;;;;5052334;28;20067;-89
2023/10/04 08:46:09;;;;;;;7.55;3.70;;;18.60;99.90;;;;;;5058167;28;20044;-88
2023/10/04 08:48:36;;;;;;;;;;;18.80;99.90;;;;;;5035083;28;20503;-88
2023/10/04 08:51:31;;;;;;;7.97;3.10;;;19.00;99.90;;;;;;5055154;28;19930;-88
2023/10/04 08:54:24;;;;;;;10.80;3.45;;;19.20;99.90;;;;;;5065927;28;20115;-91
2023/10/04 08:57:04;;;;;;;7.93;3.45;;;19.20;99.90;;;;;;5079444;28;20165;-88
2023/10/04 08:59:32;;;;;;;7.72;3.08;;;19.30;99.90;;;;;;5034725;28;20054;-87
2023/10/04 09:01:59;;;;;;;6.75;3.03;;;19.30;99.90;;;;;;5043016;28;20040;-84
2023/10/04 09:04:27;;;;;;;8.40;3.28;;;19.20;99.90;;;;;;5043374;28;20657;-81
2023/10/04 09:06:53;;;;;;;11.95;3.58;;;18.90;99.90;;;;;;5040298;28;20047;-81
2023/10/04 09:09:20;;;;;;;7.90;3.63;;;18.80;99.90;;;;;;5038982;28;20041;-82
2023/10/04 09:11:46;;;;;;;10.15;3.58;;;19.00;99.90;;;;;;5057866;28;20147;-88
2023/10/04 09:14:14;;;;;;;11.70;3.10;;;19.00;99.90;;;;;;5032522;28;20419;-88
2023/10/04 09:16:40;;;;;;;10.73;4.05;;;19.30;99.90;;;;;;5035487;28;20115;-88
2023/10/04 09:19:14;;;;;;;10.05;3.60;;;19.40;99.90;;;;;;5049225;28;20155;-88
2023/10/04 09:21:41;;;;;;;9.82;3.13;;;19.50;99.90;;;;;;5036506;28;20044;-88
2023/10/04 09:24:12;;;;;;;7.57;2.58;;;19.40;99.90;;;;;;5046897;28;20064;-87
2023/10/04 09:26:42;;;;;;;8.25;3.40;;;19.50;99.90;;;;;;5052201;28;20494;-88
2023/10/04 09:29:10;;;;;;;9.73;3.00;;;19.50;99.90;;;;;;5046298;28;20055;-88
2023/10/04 09:31:53;;;;;;;12.10;3.80;;;19.70;99.90;;;;;;5047476;28;20427;-87
2023/10/04 09:34:19;;;;;;;6.82;3.30;;;19.50;99.90;;;;;;5032539;28;20041;-87
2023/10/04 09:36:45;;;;;;;10.50;3.58;;;19.50;99.90;;;;;;5035765;28;20457;-87
2023/10/04 09:39:13;;;;;;;8.80;3.47;;;19.60;99.90;;;;;;5053995;28;20127;-87
2023/10/04 09:41:44;;;;;;;8.63;3.30;;;19.70;99.90;;;;;;5034219;28;20045;-88
2023/10/04 09:44:29;;;;;;;8.68;3.70;;;19.90;99.90;;;;;;5049529;28;20057;-85
2023/10/04 09:47:01;;;;;;;11.75;3.75;;;20.00;99.90;;;;;;5036752;28;20396;-89
2023/10/04 09:49:33;;;;;;;7.15;3.42;;;20.00;99.90;;;;;;5052370;28;20083;-89
2023/10/04 09:52:12;;;;;;;8.70;3.10;;;20.20;99.90;;;;;;5035606;28;20068;-89
2023/10/04 09:54:39;;;;;;;6.53;3.40;;;20.20;99.90;;;;;;5031781;28;20230;-89
2023/10/04 09:57:12;;;;;;;9.60;3.43;;;20.40;99.90;;;;;;5053661;28;20075;-90
2023/10/04 09:59:38;;;;;;;11.10;3.60;;;20.20;99.90;;;;;;5064680;28;20047;-88
2023/10/04 10:02:11;;;;;;;8.85;3.55;;;19.70;99.90;;;;;;5074896;28;20029;-88
2023/10/04 10:04:43;;;;;;;8.13;3.40;;;19.50;99.90;;;;;;5050430;28;20820;-90
2023/10/04 10:07:17;;;;;;;9.52;3.80;;;19.60;99.90;;;;;;5038367;28;20510;-89
2023/10/04 10:10:16;;;;;;;10.15;3.60;;;19.60;99.90;;;;;;5030720;28;20045;-89
2023/10/04 10:12:43;;;;;;;10.18;3.83;;;19.60;99.90;;;;;;5039406;28;20044;-88
2023/10/04 10:15:11;;;;;;;7.38;3.38;;;19.70;99.90;;;;;;5052597;28;20041;-89
2023/10/04 10:17:38;;;;;;;10.38;3.65;;;19.90;99.90;;;;;;5052726;28;20048;-88
2023/10/04 10:20:11;;;;;;;10.35;3.47;;;20.00;99.90;;;;;;5058646;28;20124;-88
2023/10/04 10:23:05;;;;;;;9.45;3.67;;;20.00;99.90;;;;;;5047380;28;20055;-87
2023/10/04 10:25:38;;;;;;;7.80;3.15;;;19.70;99.90;;;;;;5048995;28;20071;-87
2023/10/04 10:28:19;;;;;;;8.70;3.35;;;19.40;99.90;;;;;;5055056;28;20111;-87
2023/10/04 10:30:45;;;;;;;7.72;3.53;;;19.10;99.90;;;;;;5069294;28;20367;-87
2023/10/04 10:33:21;;;;;;;10.35;3.53;;;18.80;99.90;;;;;;5059911;28;20040;-87
2023/10/04 10:35:51;;;;;;;9.45;3.05;;;18.60;99.90;;;;;;5050513;28;20051;-87
2023/10/04 10:38:41;;;;;;;8.25;3.90;;;18.50;99.90;;;;;;5064567;28;20096;-87
2023/10/04 10:41:32;;;;;;;9.05;3.55;;;18.40;99.90;;;;;;5063917;28;20107;-87
2023/10/04 10:44:17;;;;;;;8.52;3.25;;;18.60;99.90;;;;;;5046276;28;20041;-87
2023/10/04 10:46:57;;;;;;;10.40;4.10;;;18.80;99.90;;;;;;5054661;28;20040;-87
2023/10/04 10:49:44;;;;;;;7.60;3.78;;;18.90;99.90;;;;;;5076869;28;20044;-87
2023/10/04 10:52:39;;;;;;;8.23;3.15;;;19.00;99.90;;;;;;5059465;28;20520;-87
2023/10/04 10:55:19;;;;;;;10.98;4.18;;;18.90;99.90;;;;;;5076918;28;20103;-87
2023/10/04 10:57:58;;;;;;;;;;;;;;;;;;;;;
2023/10/04 11:00:26;;;;;;;11.10;4.30;;;19.10;99.90;;;;;;5076681;28;20044;-88
2023/10/04 11:02:54;;;;;;;9.88;3.85;;;19.20;99.90;;;;;;5054128;28;20047;-82
2023/10/04 11:05:26;;;;;;;11.57;4.43;;;19.10;99.90;;;;;;5087642;28;20048;-87
2023/10/04 11:08:15;;;;;;;13.27;4.18;;;18.80;99.90;;;;;;5054335;28;20040;-89
2023/10/04 11:10:52;;;;;;;9.88;3.95;;;18.80;99.90;;;;;;5048708;28;20037;-89
2023/10/04 11:14:06;;;;;;;8.32;3.67;;;18.80;99.90;;;;;;4992399;28;20080;-88
2023/10/04 11:24:01;;;;;;;12.05;4.07;;;18.20;99.90;;;;;;4929292;29;20044;-87
2023/10/04 11:27:09;;;;;;;8.30;3.95;;;18.00;99.90;;;;;;4920102;28;20049;-89
2023/10/04 11:29:42;;;;;;;13.43;4.63;;;17.70;99.90;;;;;;5017938;28;20111;-86
2023/10/04 11:32:14;;;;;;;10.45;3.88;;;17.70;99.90;;;;;;5029410;28;20048;-87
2023/10/04 11:34:50;;;;;;;11.60;5.13;;;17.90;99.90;;;;;;5023746;28;20043;-89
2023/10/04 11:37:53;;;;;;;11.10;4.90;;;17.80;99.90;;;;;;5022286;28;20056;-89
2023/10/04 11:40:29;;;;;;;10.50;3.70;;;17.80;99.90;;;;;;5129543;22;20052;-84
2023/10/04 11:43:03;;;;;;;10.70;4.13;;;17.90;99.90;;;;;;5093098;28;20552;-84
2023/10/04 11:45:31;;;;;;;13.30;4.10;;;17.80;99.90;;;;;;5107687;28;20035;-85
2023/10/04 11:48:02;;;;;;;9.30;4.10;;;17.80;99.90;;;;;;5078344;28;20039;-85
2023/10/04 11:50:48;;;;;;;11.48;4.13;;;17.80;99.90;;;;;;5084906;28;20052;-85
2023/10/04 11:53:38;;;;;;;11.60;4.45;;;17.70;99.90;;;;;;5086776;28;20032;-85
2023/10/04 11:56:09;;;;;;;8.07;3.92;;;17.70;99.90;;;;;;5064323;28;20023;-85
2023/10/04 11:58:51;;;;;;;9.80;4.25;;;17.60;99.90;;;;;;5052980;28;20066;-86
2023/10/04 12:01:22;;;;;;;9.90;4.00;;;17.50;99.90;;;;;;5074630;28;20036;-87
2023/10/04 12:03:51;;;;;;;10.13;4.18;;;17.40;99.90;;;;;;5078029;28;20032;-85
2023/10/04 12:06:24;;;;;;;11.52;4.53;;;17.30;99.90;;;;;;5077017;28;20044;-86
2023/10/04 12:08:50;;;;;;;9.52;4.35;;;17.20;99.90;;;;;;5073114;28;20047;-85
2023/10/04 12:11:23;;;;;;;7.05;3.83;;;17.30;99.90;;;;;;5060134;28;20047;-85
2023/10/04 12:14:05;;;;;;;12.38;3.92;;;17.40;99.90;;;;;;5065495;28;20039;-86
2023/10/04 12:21:12;;;;;;;9.85;3.63;;;17.60;99.90;;;;;;5035292;28;20092;-86
2023/10/04 12:24:08;;;;;;;8.50;3.65;;;17.70;99.90;;;;;;5071945;28;20048;-86
2023/10/04 12:30:54;;;;;;;8.88;3.50;;;17.80;99.90;;;;;;5081435;28;20589;-86
2023/10/04 12:33:56;;;;;;;8.95;4.03;;;18.10;99.90;;;;;;5051856;28;20059;-86
2023/10/04 12:36:35;;;;;;;9.38;3.92;;;18.30;99.90;;;;;;5088810;28;20090;-86
2023/10/04 12:39:52;;;;;;;8.60;3.67;;;18.30;99.90;;;;;;5068254;28;20048;-86
2023/10/04 12:45:22;;;;;;;10.50;3.83;;;18.10;99.90;;;;;;5093354;28;20035;-86
2023/10/04 12:48:25;;;;;;;13.57;3.70;;;17.90;99.90;;;;;;5051073;28;20099;-86
2023/10/04 12:51:09;;;;;;;10.00;3.88;;;17.80;99.90;;;;;;5068698;28;20089;-86
2023/10/04 12:54:11;;;;;;;8.18;3.50;;;17.70;99.90;;;;;;4977404;28;20104;-86
2023/10/04 12:56:42;;;;;;;9.63;3.70;;;17.70;99.90;;;;;;5057483;28;20053;-87
2023/10/04 12:59:08;;;;;;;8.30;3.55;;;17.70;99.90;;;;;;5074350;28;20048;-86
2023/10/04 13:01:34;;;;;;;8.20;3.60;;;17.70;99.90;;;;;;5094122;28;20082;-86
2023/10/04 13:04:01;;;;;;;7.15;3.15;;;17.60;99.90;;;;;;5078783;28;20404;-86
2023/10/04 13:06:30;;;;;;;6.32;3.20;;;17.60;99.90;;;;;;5078847;28;20119;-86
2023/10/04 13:08:56;;;;;;;6.50;3.15;;;17.60;99.90;;;;;;5080860;28;20032;-86
2023/10/04 13:11:22;;;;;;;8.63;3.00;;;17.70;99.90;;;;;;5056080;28;20550;-87
2023/10/04 13:13:50;;;;;;;10.50;3.65;;;17.80;99.90;;;;;;5061921;28;20036;-88
2023/10/04 13:16:17;;;;;;;8.27;3.72;;;18.00;99.90;;;;;;5079042;28;20051;-87
2023/10/04 13:18:43;;;;;;;7.68;3.78;;;17.90;99.90;;;;;;5071618;28;20044;-88
2023/10/04 13:21:11;;;;;;;9.23;3.47;;;18.00;99.90;;;;;;5074562;28;20122;-86
2023/10/04 13:23:37;;;;;;;12.27;3.85;;;17.90;99.90;;;;;;5077348;28;20045;-86
2023/10/04 13:26:03;;;;;;;8.10;3.58;;;18.00;99.90;;;;;;5081743;28;20047;-86
2023/10/04 13:28:29;;;;;;;10.35;3.40;;;18.00;99.90;;;;;;5059759;28;20066;-85
2023/10/04 13:30:56;;;;;;;6.95;2.95;;;18.10;99.90;;;;;;5076578;28;20488;-87